Time;durP1;ratioP1;P1;durP2;ratioP2;P2;SDS_P1;SDS_P2;PMS_P1;PMS_P2;Temp;Humidity;BMP_temperature;BMP_pressure;BME280_temperature;BME280_humidity;BME280_pressure;Samples;Min_cycle;Max_cycle;Signal;HPM_P1;HPM_P2
2023/05/11 00:01:06;;;;;;;12.70;9.63;;;15.60;99.90;;;;;;5083970;28;20028;-36
2023/05/11 00:03:32;;;;;;;12.20;9.73;;;15.60;99.90;;;;;;5082435;28;20467;-35
2023/05/11 00:05:58;;;;;;;11.02;8.95;;;15.50;99.90;;;;;;5083372;28;20031;-35
2023/05/11 00:08:23;;;;;;;15.52;9.40;;;15.50;99.90;;;;;;5083098;28;20020;-35
2023/05/11 00:10:49;;;;;;;13.23;9.60;;;15.50;99.90;;;;;;5082833;28;20038;-35
2023/05/11 00:13:15;;;;;;;11.65;9.30;;;15.50;99.90;;;;;;5082793;28;20027;-35
2023/05/11 00:15:41;;;;;;;12.68;9.75;;;15.50;99.90;;;;;;5082205;28;20425;-36
2023/05/11 00:18:06;;;;;;;12.40;9.25;;;15.50;99.90;;;;;;5082738;28;20052;-36
2023/05/11 00:20:32;;;;;;;14.05;9.60;;;15.50;99.90;;;;;;5082895;28;20495;-34
2023/05/11 00:22:57;;;;;;;12.65;9.52;;;15.50;99.90;;;;;;5082484;28;20039;-35
2023/05/11 00:25:23;;;;;;;12.57;9.85;;;15.40;99.90;;;;;;5082099;28;20035;-35
2023/05/11 00:27:49;;;;;;;13.02;10.07;;;15.40;99.90;;;;;;5064325;28;20477;-36
2023/05/11 00:30:17;;;;;;;12.75;10.52;;;15.40;99.90;;;;;;5072322;28;20081;-36
2023/05/11 00:32:43;;;;;;;12.68;9.95;;;15.40;99.90;;;;;;5082179;28;20035;-37
2023/05/11 00:35:13;;;;;;;15.07;10.68;;;15.40;99.90;;;;;;5082852;28;20028;-36
2023/05/11 00:37:39;;;;;;;15.23;11.15;;;15.40;99.90;;;;;;5081901;28;20027;-36
2023/05/11 00:40:07;;;;;;;15.82;11.68;;;15.30;99.90;;;;;;5082633;28;20028;-35
2023/05/11 00:42:36;;;;;;;15.43;11.70;;;15.30;99.90;;;;;;5082845;28;20102;-35
2023/05/11 00:45:01;;;;;;;14.35;11.27;;;15.30;99.90;;;;;;5081685;28;20060;-36
2023/05/11 00:47:27;;;;;;;14.32;11.38;;;15.30;99.90;;;;;;5082412;28;20115;-35
2023/05/11 00:49:53;;;;;;;13.52;10.65;;;15.30;99.90;;;;;;5082758;28;20085;-36
2023/05/11 00:52:20;;;;;;;15.98;11.02;;;15.30;99.90;;;;;;5081442;28;20024;-36
2023/05/11 00:54:47;;;;;;;14.00;10.38;;;15.30;99.90;;;;;;5082012;28;20105;-36
2023/05/11 00:57:13;;;;;;;13.82;10.73;;;15.30;99.90;;;;;;5082894;28;20032;-35
2023/05/11 00:59:39;;;;;;;15.50;10.38;;;15.30;99.90;;;;;;5081254;28;20036;-34
2023/05/11 01:02:05;;;;;;;12.98;10.02;;;15.30;99.90;;;;;;5083170;28;20038;-36
2023/05/11 01:04:31;;;;;;;14.07;10.65;;;15.30;99.90;;;;;;5082434;28;20104;-34
2023/05/11 01:07:11;;;;;;;14.55;11.00;;;15.20;99.90;;;;;;5081979;28;20394;-35
2023/05/11 01:09:48;;;;;;;14.20;10.43;;;15.20;99.90;;;;;;5082107;28;20103;-36
2023/05/11 01:12:36;;;;;;;14.40;11.13;;;15.20;99.90;;;;;;5082823;28;20107;-36
2023/05/11 01:15:35;;;;;;;16.55;11.43;;;15.20;99.90;;;;;;5081412;28;20050;-35
2023/05/11 01:18:27;;;;;;;16.38;11.10;;;15.20;99.90;;;;;;5082338;28;20111;-34
2023/05/11 01:20:58;;;;;;;13.40;10.60;;;15.20;99.90;;;;;;5081299;28;20125;-35
2023/05/11 01:24:00;;;;;;;15.57;11.23;;;15.20;99.90;;;;;;5081725;28;20395;-35
2023/05/11 01:26:34;;;;;;;16.92;11.48;;;15.20;99.90;;;;;;5041017;28;20077;-35
2023/05/11 01:29:22;;;;;;;16.05;11.00;;;15.20;99.90;;;;;;5081086;28;20502;-35
2023/05/11 01:31:48;;;;;;;15.77;11.43;;;15.20;99.90;;;;;;5080857;28;20459;-37
2023/05/11 01:34:22;;;;;;;16.00;11.30;;;15.20;99.90;;;;;;5080798;28;20484;-35
2023/05/11 01:37:03;;;;;;;16.42;10.85;;;15.20;99.90;;;;;;5081543;28;20028;-36
2023/05/11 01:39:41;;;;;;;16.83;12.02;;;15.20;99.90;;;;;;5081289;28;20035;-35
2023/05/11 01:42:09;;;;;;;16.13;11.98;;;15.20;99.90;;;;;;5080278;28;20066;-36
2023/05/11 01:44:38;;;;;;;15.75;11.95;;;15.20;99.90;;;;;;5081557;28;20028;-36
2023/05/11 01:47:05;;;;;;;15.80;11.68;;;15.20;99.90;;;;;;5081371;28;20034;-35
2023/05/11 01:49:35;;;;;;;16.25;11.40;;;15.20;99.90;;;;;;5081009;28;20023;-36
2023/05/11 01:52:05;;;;;;;15.18;11.60;;;15.30;99.90;;;;;;5081399;28;20111;-35
2023/05/11 01:54:32;;;;;;;15.85;11.55;;;15.20;99.90;;;;;;5080708;28;20146;-35
2023/05/11 01:56:59;;;;;;;18.10;12.25;;;15.20;99.90;;;;;;5080376;28;20024;-35
2023/05/11 01:59:26;;;;;;;15.27;11.52;;;15.20;99.90;;;;;;5081258;28;20028;-36
2023/05/11 02:01:53;;;;;;;16.40;11.57;;;15.30;99.90;;;;;;5081709;28;20038;-35
2023/05/11 02:04:20;;;;;;;15.48;11.50;;;15.20;99.90;;;;;;5081507;28;20035;-35
2023/05/11 02:06:51;;;;;;;14.38;10.52;;;15.20;99.90;;;;;;5081389;28;20036;-36
2023/05/11 02:09:18;;;;;;;14.77;11.50;;;15.10;99.90;;;;;;5081609;28;20101;-35
2023/05/11 02:11:46;;;;;;;16.77;11.88;;;15.10;99.90;;;;;;5081129;28;20130;-36
2023/05/11 02:14:12;;;;;;;17.65;12.60;;;15.00;99.90;;;;;;5081684;28;20028;-35
2023/05/11 02:16:38;;;;;;;17.38;12.60;;;15.00;99.90;;;;;;5080683;28;20368;-35
2023/05/11 02:19:06;;;;;;;17.58;12.77;;;14.90;99.90;;;;;;5081600;28;20059;-34
2023/05/11 02:21:33;;;;;;;18.25;12.50;;;15.00;99.90;;;;;;5080488;28;20060;-35
2023/05/11 02:24:02;;;;;;;17.77;12.85;;;15.00;99.90;;;;;;5080439;28;20035;-35
2023/05/11 02:26:27;;;;;;;20.85;13.13;;;15.00;99.90;;;;;;5080246;28;20034;-34
2023/05/11 02:28:56;;;;;;;17.95;13.32;;;15.10;99.90;;;;;;5080499;28;20020;-34
2023/05/11 02:31:28;;;;;;;19.17;12.73;;;15.10;99.90;;;;;;5080616;28;20028;-35
2023/05/11 02:33:59;;;;;;;16.88;12.13;;;15.10;99.90;;;;;;5080899;28;20036;-33
2023/05/11 02:36:27;;;;;;;17.13;12.27;;;15.10;99.90;;;;;;5080385;28;20115;-34
2023/05/11 02:39:03;;;;;;;18.88;13.30;;;15.10;99.90;;;;;;5080079;28;20073;-35
2023/05/11 02:41:30;;;;;;;17.88;13.13;;;15.10;99.90;;;;;;5081161;28;20024;-35
2023/05/11 02:44:00;;;;;;;16.60;12.10;;;15.00;99.90;;;;;;5080584;28;20020;-34
2023/05/11 02:46:30;;;;;;;18.08;12.90;;;15.00;99.90;;;;;;5083418;28;20028;-34
2023/05/11 02:48:59;;;;;;;19.38;12.90;;;15.00;99.90;;;;;;5084969;28;20024;-34
2023/05/11 02:51:31;;;;;;;18.90;13.15;;;15.00;99.90;;;;;;5083753;28;20052;-34
2023/05/11 02:53:58;;;;;;;17.98;13.43;;;15.00;99.90;;;;;;5084818;28;20036;-35
2023/05/11 02:56:24;;;;;;;20.42;13.23;;;15.00;99.90;;;;;;5083999;28;20119;-35
2023/05/11 02:58:50;;;;;;;21.45;13.52;;;15.00;99.90;;;;;;5084927;28;20149;-35
2023/05/11 03:01:16;;;;;;;17.50;12.65;;;15.00;99.90;;;;;;5085918;28;20803;-35
2023/05/11 03:03:42;;;;;;;18.08;12.48;;;14.90;99.90;;;;;;5084694;28;20683;-35
2023/05/11 03:06:11;;;;;;;18.95;13.02;;;14.80;99.90;;;;;;5084421;28;20668;-35
2023/05/11 03:08:36;;;;;;;19.48;14.15;;;14.70;99.90;;;;;;5084676;28;20024;-36
2023/05/11 03:11:03;;;;;;;19.67;14.07;;;14.60;99.90;;;;;;5084958;28;20035;-35
2023/05/11 03:13:30;;;;;;;26.60;15.32;;;14.60;99.90;;;;;;5083386;28;20464;-36
2023/05/11 03:15:57;;;;;;;24.17;16.00;;;14.60;99.90;;;;;;5084605;28;20673;-35
2023/05/11 03:18:25;;;;;;;20.55;13.27;;;14.60;99.90;;;;;;5084236;28;20105;-34
2023/05/11 03:20:50;;;;;;;22.70;15.13;;;14.50;99.90;;;;;;5084227;28;20020;-35
2023/05/11 03:23:17;;;;;;;22.85;14.85;;;14.50;99.90;;;;;;5084252;28;20483;-36
2023/05/11 03:25:44;;;;;;;20.48;14.02;;;14.40;99.90;;;;;;5083797;28;20085;-35
2023/05/11 03:28:11;;;;;;;24.17;17.30;;;14.40;99.90;;;;;;5084124;28;20077;-35
2023/05/11 03:30:38;;;;;;;25.38;16.50;;;14.40;99.90;;;;;;5083436;28;20391;-34
2023/05/11 03:33:04;;;;;;;24.00;16.05;;;14.40;99.90;;;;;;5084331;28;20111;-34
2023/05/11 03:35:32;;;;;;;25.38;15.52;;;14.40;99.90;;;;;;5082709;28;20628;-34
2023/05/11 03:37:58;;;;;;;23.35;15.65;;;14.40;99.90;;;;;;5083738;28;20020;-35
2023/05/11 03:40:26;;;;;;;22.35;15.68;;;14.40;99.90;;;;;;5083449;28;20086;-34
2023/05/11 03:42:54;;;;;;;22.77;15.85;;;14.50;99.90;;;;;;5084967;28;20024;-34
2023/05/11 03:45:20;;;;;;;22.83;14.80;;;14.50;99.90;;;;;;5084598;28;20032;-35
2023/05/11 03:47:47;;;;;;;22.35;15.35;;;14.50;99.90;;;;;;5083449;28;20024;-34
2023/05/11 03:50:15;;;;;;;24.42;15.00;;;14.50;99.90;;;;;;5083781;28;20162;-35
2023/05/11 03:52:41;;;;;;;20.48;14.40;;;14.50;99.90;;;;;;5083163;28;20470;-35
2023/05/11 03:55:07;;;;;;;20.75;14.50;;;14.50;99.90;;;;;;5082634;28;20024;-35
2023/05/11 03:57:33;;;;;;;22.77;16.45;;;14.50;99.90;;;;;;5083046;28;20072;-35
2023/05/11 03:59:59;;;;;;;22.35;15.63;;;14.50;99.90;;;;;;5083182;28;20032;-36
2023/05/11 04:02:24;;;;;;;22.25;14.95;;;14.40;99.90;;;;;;5082029;28;20035;-34
2023/05/11 04:04:51;;;;;;;20.80;14.80;;;14.40;99.90;;;;;;5083338;28;20031;-35
2023/05/11 04:07:17;;;;;;;27.13;14.80;;;14.40;99.90;;;;;;5082536;28;20438;-35
2023/05/11 04:09:43;;;;;;;22.95;16.23;;;14.30;99.90;;;;;;5082335;28;20509;-35
2023/05/11 04:12:08;;;;;;;23.95;15.20;;;14.40;99.90;;;;;;5083407;28;20024;-35
2023/05/11 04:14:34;;;;;;;22.98;15.05;;;14.50;99.90;;;;;;5082746;28;20554;-34
2023/05/11 04:17:00;;;;;;;20.70;13.98;;;14.50;99.90;;;;;;5081916;28;20119;-35
2023/05/11 04:19:26;;;;;;;22.33;14.55;;;14.50;99.90;;;;;;5082800;28;20055;-35
2023/05/11 04:21:51;;;;;;;20.25;13.95;;;14.50;99.90;;;;;;5082409;28;20140;-35
2023/05/11 04:24:17;;;;;;;19.63;13.75;;;14.60;99.90;;;;;;5081763;28;20024;-34
2023/05/11 04:26:42;;;;;;;21.25;13.88;;;14.60;99.90;;;;;;5082970;28;20093;-35
2023/05/11 04:29:08;;;;;;;22.40;14.95;;;14.60;99.90;;;;;;5083260;28;20035;-34
2023/05/11 04:31:33;;;;;;;22.30;14.35;;;14.50;99.90;;;;;;5081611;28;20060;-35
2023/05/11 04:33:59;;;;;;;19.90;14.13;;;14.50;99.90;;;;;;5082561;28;20149;-34
2023/05/11 04:36:27;;;;;;;18.52;12.85;;;14.60;99.90;;;;;;5082119;28;20127;-35
2023/05/11 04:38:53;;;;;;;19.20;13.43;;;14.60;99.90;;;;;;5082520;28;20020;-34
2023/05/11 04:41:18;;;;;;;20.33;13.50;;;14.60;99.90;;;;;;5082375;28;20067;-34
2023/05/11 04:43:44;;;;;;;23.33;14.60;;;14.60;99.90;;;;;;5081790;28;20055;-36
2023/05/11 04:46:10;;;;;;;21.13;13.88;;;14.60;99.90;;;;;;5082416;28;20026;-36
2023/05/11 04:48:35;;;;;;;21.90;14.30;;;14.60;99.90;;;;;;5082212;28;20493;-34
2023/05/11 04:51:04;;;;;;;19.75;13.70;;;14.70;99.90;;;;;;5081949;28;20766;-34
2023/05/11 04:53:30;;;;;;;22.15;13.68;;;14.70;99.90;;;;;;5081970;28;20131;-35
2023/05/11 04:55:56;;;;;;;23.45;14.05;;;14.70;99.90;;;;;;5082650;28;20046;-35
2023/05/11 04:58:21;;;;;;;20.35;13.57;;;14.80;99.90;;;;;;5081094;28;20013;-35
2023/05/11 05:00:47;;;;;;;21.13;13.13;;;14.80;99.90;;;;;;5082797;28;20060;-35
2023/05/11 05:03:13;;;;;;;18.55;13.00;;;14.80;99.90;;;;;;5082418;28;20020;-33
2023/05/11 05:05:39;;;;;;;20.00;14.05;;;14.80;99.90;;;;;;5081676;28;20074;-35
2023/05/11 05:08:06;;;;;;;19.95;13.57;;;14.80;99.90;;;;;;5081898;28;20024;-35
2023/05/11 05:10:31;;;;;;;18.80;13.40;;;14.80;99.90;;;;;;5082518;28;20047;-37
2023/05/11 05:12:57;;;;;;;21.48;14.63;;;14.80;99.90;;;;;;5082050;28;20020;-34
2023/05/11 05:15:22;;;;;;;21.35;13.93;;;14.80;99.90;;;;;;5082494;28;20360;-34
2023/05/11 05:17:48;;;;;;;20.73;13.73;;;14.80;99.90;;;;;;5082548;28;20020;-35
2023/05/11 05:20:14;;;;;;;20.50;13.15;;;14.80;99.90;;;;;;5081712;28;20020;-36
2023/05/11 05:22:40;;;;;;;19.65;13.98;;;14.80;99.90;;;;;;5081898;28;20161;-34
2023/05/11 05:25:07;;;;;;;17.95;12.77;;;14.80;99.90;;;;;;5083101;28;20092;-34
2023/05/11 05:27:32;;;;;;;18.42;13.00;;;14.80;99.90;;;;;;5081144;28;20020;-35
2023/05/11 05:29:58;;;;;;;18.25;12.95;;;14.90;99.90;;;;;;5082163;28;20031;-34
2023/05/11 05:32:23;;;;;;;19.45;12.30;;;14.80;99.90;;;;;;5081776;28;20475;-34
2023/05/11 05:34:49;;;;;;;17.00;11.80;;;14.80;99.90;;;;;;5080900;28;20113;-34
2023/05/11 05:37:15;;;;;;;18.02;12.15;;;14.80;99.90;;;;;;5082286;28;20024;-35
2023/05/11 05:39:43;;;;;;;18.00;11.18;;;14.90;99.90;;;;;;5082421;28;20148;-35
2023/05/11 05:42:09;;;;;;;17.67;12.20;;;14.90;99.90;;;;;;5079046;28;20113;-36
2023/05/11 05:44:35;;;;;;;19.02;11.73;;;14.90;99.90;;;;;;5079970;28;20737;-35
2023/05/11 05:47:00;;;;;;;15.95;11.73;;;14.90;99.90;;;;;;5080637;28;20032;-35
2023/05/11 05:49:26;;;;;;;16.73;11.38;;;14.90;99.90;;;;;;5080439;28;20093;-35
2023/05/11 05:51:51;;;;;;;16.10;11.15;;;14.90;99.90;;;;;;5081301;28;20553;-34
2023/05/11 05:54:17;;;;;;;15.68;11.10;;;14.90;99.90;;;;;;5079531;28;20543;-36
2023/05/11 05:56:44;;;;;;;15.23;11.52;;;14.90;99.90;;;;;;5080546;28;20076;-35
2023/05/11 05:59:11;;;;;;;15.63;11.52;;;15.00;99.90;;;;;;5081020;28;20036;-34
2023/05/11 06:01:44;;;;;;;13.88;10.32;;;15.00;99.90;;;;;;5080574;28;20495;-35
2023/05/11 06:04:13;;;;;;;14.98;11.13;;;15.10;99.90;;;;;;5081276;28;20127;-39
2023/05/11 06:06:39;;;;;;;15.50;11.55;;;15.10;99.90;;;;;;5081241;28;20150;-35
2023/05/11 06:09:05;;;;;;;15.13;11.18;;;15.20;99.90;;;;;;5079911;28;20023;-35
2023/05/11 06:11:31;;;;;;;18.35;13.00;;;15.20;99.90;;;;;;5080303;28;20020;-37
2023/05/11 06:13:56;;;;;;;15.45;11.38;;;15.30;99.90;;;;;;5080979;28;20032;-36
2023/05/11 06:16:24;;;;;;;14.55;10.85;;;15.30;99.90;;;;;;5079509;28;20028;-34
2023/05/11 06:18:50;;;;;;;15.38;11.27;;;15.40;99.90;;;;;;5080916;28;20076;-36
2023/05/11 06:21:15;;;;;;;14.10;10.30;;;15.40;99.90;;;;;;5081326;28;20058;-36
2023/05/11 06:23:41;;;;;;;14.50;11.25;;;15.50;99.90;;;;;;5079633;28;20176;-35
2023/05/11 06:26:07;;;;;;;15.45;10.68;;;15.50;99.90;;;;;;5080301;28;20810;-34
2023/05/11 06:28:32;;;;;;;14.20;10.68;;;15.60;99.90;;;;;;5079669;28;20056;-36
2023/05/11 06:30:58;;;;;;;11.48;9.40;;;15.60;99.90;;;;;;5079931;28;20615;-35
2023/05/11 06:33:26;;;;;;;14.50;9.63;;;15.70;99.90;;;;;;5080492;28;20111;-34
2023/05/11 06:35:52;;;;;;;14.38;10.23;;;15.70;99.90;;;;;;5080742;28;20032;-35
2023/05/11 06:38:17;;;;;;;13.90;10.30;;;15.70;99.90;;;;;;5080192;28;20036;-36
2023/05/11 06:40:43;;;;;;;14.43;10.45;;;15.80;99.90;;;;;;5081093;28;20024;-36
2023/05/11 06:43:09;;;;;;;14.02;10.85;;;15.80;99.90;;;;;;5080552;28;20485;-36
2023/05/11 06:45:35;;;;;;;15.57;10.98;;;15.90;99.90;;;;;;5079436;28;20063;-36
2023/05/11 06:48:02;;;;;;;14.88;11.30;;;16.00;99.90;;;;;;5081041;28;20032;-34
2023/05/11 06:50:27;;;;;;;13.93;9.77;;;16.10;99.90;;;;;;5079003;28;20493;-35
2023/05/11 06:52:53;;;;;;;13.68;9.90;;;16.20;99.90;;;;;;5080473;28;20444;-35
2023/05/11 06:55:18;;;;;;;13.68;9.90;;;16.40;99.90;;;;;;5079862;28;20062;-36
2023/05/11 06:57:44;;;;;;;11.45;9.25;;;16.50;99.90;;;;;;5080303;28;20020;-36
2023/05/11 07:00:10;;;;;;;13.10;10.07;;;16.60;99.90;;;;;;5081279;28;20138;-36
2023/05/11 07:02:35;;;;;;;12.70;10.20;;;16.70;99.90;;;;;;5080379;28;20059;-36
2023/05/11 07:05:01;;;;;;;11.88;9.20;;;16.70;99.90;;;;;;5080663;28;20113;-36
2023/05/11 07:07:27;;;;;;;13.50;10.18;;;16.70;99.90;;;;;;5079681;28;20024;-37
2023/05/11 07:09:52;;;;;;;12.07;9.07;;;16.70;99.90;;;;;;5081251;28;20020;-34
2023/05/11 07:12:18;;;;;;;12.25;9.55;;;16.80;99.90;;;;;;5079601;28;20364;-36
2023/05/11 07:14:43;;;;;;;11.48;9.40;;;16.70;99.90;;;;;;5079752;28;20177;-35
2023/05/11 07:17:09;;;;;;;13.55;9.38;;;16.80;99.90;;;;;;5079696;28;20046;-36
2023/05/11 07:19:35;;;;;;;13.15;9.88;;;16.70;99.90;;;;;;5079614;28;20021;-35
2023/05/11 07:22:04;;;;;;;13.43;10.07;;;16.70;99.90;;;;;;5079867;28;20054;-36
2023/05/11 07:24:30;;;;;;;14.52;11.02;;;16.70;99.90;;;;;;5080052;28;20031;-35
2023/05/11 07:26:56;;;;;;;15.45;12.18;;;16.70;99.90;;;;;;5080207;28;20027;-35
2023/05/11 07:29:21;;;;;;;17.80;12.18;;;16.70;99.90;;;;;;5080222;28;20487;-35
2023/05/11 07:31:47;;;;;;;16.52;12.43;;;16.70;99.90;;;;;;5082265;28;20031;-38
2023/05/11 07:34:12;;;;;;;18.27;13.20;;;16.70;99.90;;;;;;5083795;28;20035;-36
2023/05/11 07:36:38;;;;;;;15.43;11.45;;;16.70;99.90;;;;;;5083854;28;20039;-35
2023/05/11 07:39:03;;;;;;;16.38;13.18;;;16.80;99.90;;;;;;5084594;28;20020;-36
2023/05/11 07:41:29;;;;;;;17.42;13.07;;;16.80;99.90;;;;;;5083213;28;20058;-37
2023/05/11 07:43:55;;;;;;;16.92;13.32;;;16.90;99.90;;;;;;5084319;28;20379;-36
2023/05/11 07:46:21;;;;;;;19.23;14.45;;;16.90;99.90;;;;;;5083918;28;20028;-35
2023/05/11 07:48:46;;;;;;;17.38;13.32;;;16.90;99.90;;;;;;5083148;28;20035;-38
2023/05/11 07:51:12;;;;;;;15.95;12.95;;;17.00;99.90;;;;;;5084866;28;20024;-36
2023/05/11 07:53:38;;;;;;;17.02;12.80;;;17.10;99.90;;;;;;5082819;28;20048;-36
2023/05/11 07:56:04;;;;;;;17.05;13.45;;;17.10;99.90;;;;;;5083898;28;20467;-36
2023/05/11 07:58:31;;;;;;;18.60;13.43;;;17.10;99.90;;;;;;5083608;28;20032;-37
2023/05/11 08:00:57;;;;;;;18.13;14.05;;;17.00;99.90;;;;;;5083829;28;20016;-37
2023/05/11 08:03:22;;;;;;;19.30;14.13;;;17.10;99.90;;;;;;5083381;28;20012;-36
2023/05/11 08:05:48;;;;;;;20.73;15.15;;;17.20;99.90;;;;;;5083755;28;20061;-36
2023/05/11 08:08:14;;;;;;;19.95;15.32;;;17.30;99.90;;;;;;5083347;28;20631;-37
2023/05/11 08:10:40;;;;;;;19.77;15.25;;;17.50;99.90;;;;;;5084057;28;20055;-35
2023/05/11 08:13:06;;;;;;;16.15;13.70;;;17.50;99.90;;;;;;5083254;28;20474;-36
2023/05/11 08:15:32;;;;;;;17.95;15.07;;;17.70;99.90;;;;;;5082060;28;20035;-37
2023/05/11 08:17:58;;;;;;;22.92;17.20;;;17.70;99.90;;;;;;5083528;28;20581;-35
2023/05/11 08:20:24;;;;;;;22.58;17.27;;;17.70;99.90;;;;;;5082931;28;20027;-36
2023/05/11 08:22:50;;;;;;;19.13;14.50;;;17.60;99.90;;;;;;5082736;28;20644;-36
2023/05/11 08:25:15;;;;;;;19.23;15.65;;;17.60;99.90;;;;;;5083490;28;20028;-35
2023/05/11 08:27:41;;;;;;;21.38;16.40;;;17.50;99.90;;;;;;5083174;28;20034;-36
2023/05/11 08:30:08;;;;;;;18.33;14.73;;;17.50;99.90;;;;;;5081330;28;20123;-36
2023/05/11 08:32:34;;;;;;;16.38;13.75;;;17.60;99.90;;;;;;5081995;28;20059;-35
2023/05/11 08:35:00;;;;;;;19.40;15.68;;;17.60;99.90;;;;;;5082731;28;20517;-35
2023/05/11 08:37:25;;;;;;;18.45;14.73;;;17.60;99.90;;;;;;5081073;28;20028;-35
2023/05/11 08:39:51;;;;;;;17.60;14.10;;;17.60;99.90;;;;;;5082323;28;20020;-36
2023/05/11 08:42:18;;;;;;;15.90;12.55;;;17.60;99.90;;;;;;5081631;28;20060;-36
2023/05/11 08:44:45;;;;;;;13.80;12.23;;;17.60;99.90;;;;;;5081323;28;20581;-35
2023/05/11 08:47:11;;;;;;;14.82;11.95;;;17.60;99.90;;;;;;5082795;28;20054;-35
2023/05/11 08:49:39;;;;;;;14.70;12.45;;;17.70;99.90;;;;;;5082258;28;20130;-36
2023/05/11 08:52:08;;;;;;;13.70;11.55;;;17.90;99.90;;;;;;5081708;28;20031;-36
2023/05/11 08:54:33;;;;;;;13.48;11.07;;;18.00;99.90;;;;;;5081639;28;20035;-35
2023/05/11 08:57:00;;;;;;;12.13;10.48;;;18.30;99.90;;;;;;5082028;28;20040;-35
2023/05/11 08:59:27;;;;;;;15.02;12.00;;;18.40;99.90;;;;;;5081679;28;20036;-36
2023/05/11 09:01:54;;;;;;;14.48;11.88;;;18.50;99.90;;;;;;5081954;28;20020;-37
2023/05/11 09:04:21;;;;;;;15.02;11.43;;;18.60;99.90;;;;;;5081621;28;20135;-36
2023/05/11 09:06:48;;;;;;;14.73;12.88;;;18.60;99.90;;;;;;5081668;28;20020;-36
2023/05/11 09:09:15;;;;;;;14.52;12.85;;;18.70;99.90;;;;;;5082014;28;20486;-37
2023/05/11 09:11:41;;;;;;;15.32;12.63;;;18.50;99.90;;;;;;5080482;28;20118;-36
2023/05/11 09:14:09;;;;;;;14.60;12.50;;;18.50;99.90;;;;;;5081681;28;20492;-35
2023/05/11 09:16:35;;;;;;;14.18;11.40;;;18.40;99.90;;;;;;5080297;28;20055;-36
2023/05/11 09:19:01;;;;;;;14.07;11.95;;;18.30;99.90;;;;;;5081214;28;20093;-35
2023/05/11 09:21:28;;;;;;;12.90;11.13;;;18.30;99.90;;;;;;5081497;28;20901;-35
2023/05/11 09:23:57;;;;;;;12.70;10.60;;;18.20;99.90;;;;;;5082445;28;20110;-35
2023/05/11 09:26:25;;;;;;;14.60;12.27;;;18.20;99.90;;;;;;5081118;28;20114;-36
2023/05/11 09:28:59;;;;;;;15.30;12.90;;;18.20;99.90;;;;;;5081838;28;20024;-36
2023/05/11 09:31:41;;;;;;;14.88;12.32;;;18.10;99.90;;;;;;5081176;28;20044;-35
2023/05/11 09:34:15;;;;;;;13.60;12.20;;;18.00;99.90;;;;;;5081219;28;20550;-36
2023/05/11 09:36:42;;;;;;;14.43;12.10;;;18.00;99.90;;;;;;5081360;28;20030;-36
2023/05/11 09:39:08;;;;;;;14.20;12.25;;;18.00;99.90;;;;;;5081026;28;20215;-36
2023/05/11 09:41:34;;;;;;;15.35;13.32;;;18.00;99.90;;;;;;5081098;28;20856;-35
2023/05/11 09:44:11;;;;;;;16.10;12.80;;;18.00;99.90;;;;;;5082591;28;20759;-35
2023/05/11 09:46:37;;;;;;;16.08;13.68;;;17.90;99.90;;;;;;5081204;28;20468;-38
2023/05/11 09:49:04;;;;;;;17.45;14.75;;;17.90;99.90;;;;;;5081740;28;20028;-36
2023/05/11 09:51:36;;;;;;;19.77;16.45;;;17.90;99.90;;;;;;5081112;28;20173;-36
2023/05/11 09:54:18;;;;;;;19.40;16.10;;;17.80;99.90;;;;;;5081008;28;20047;-37
2023/05/11 09:56:47;;;;;;;22.98;18.40;;;17.70;99.90;;;;;;5081602;28;20278;-37
2023/05/11 09:59:36;;;;;;;21.20;17.08;;;17.60;99.90;;;;;;5070632;28;20464;-36
2023/05/11 10:02:22;;;;;;;21.40;17.60;;;17.50;99.90;;;;;;5081357;28;20379;-35
2023/05/11 10:04:49;;;;;;;20.17;16.58;;;17.50;99.90;;;;;;5080502;28;20125;-36
2023/05/11 10:07:32;;;;;;;20.00;16.95;;;17.50;99.90;;;;;;5080667;28;20621;-36
2023/05/11 10:10:00;;;;;;;20.33;16.77;;;17.50;99.90;;;;;;5081722;28;20072;-34
2023/05/11 10:12:26;;;;;;;17.00;14.82;;;17.50;99.90;;;;;;5080222;28;20741;-35
2023/05/11 10:14:56;;;;;;;22.20;17.67;;;17.60;99.90;;;;;;5080389;28;20475;-36
2023/05/11 10:17:23;;;;;;;19.13;15.73;;;17.60;99.90;;;;;;5080872;28;20024;-35
2023/05/11 10:19:50;;;;;;;18.95;15.10;;;17.60;99.90;;;;;;5081245;28;20085;-35
2023/05/11 10:22:17;;;;;;;17.17;14.80;;;17.70;99.90;;;;;;5080117;28;20106;-37
2023/05/11 10:24:43;;;;;;;18.45;15.55;;;17.70;99.90;;;;;;5080665;28;20035;-36
2023/05/11 10:27:09;;;;;;;19.05;15.15;;;17.70;99.90;;;;;;5081350;28;20036;-36
2023/05/11 10:29:36;;;;;;;16.73;14.25;;;17.70;99.90;;;;;;5078856;28;20770;-38
2023/05/11 10:32:03;;;;;;;17.98;14.82;;;17.70;99.90;;;;;;5081039;28;20038;-35
2023/05/11 10:34:30;;;;;;;17.63;14.25;;;17.70;99.90;;;;;;5079937;28;20028;-35
2023/05/11 10:36:58;;;;;;;19.42;16.10;;;17.60;99.90;;;;;;5079803;28;20893;-36
2023/05/11 10:39:24;;;;;;;19.52;15.30;;;17.60;99.90;;;;;;5080237;28;20043;-36
2023/05/11 10:42:20;;;;;;;15.95;13.70;;;17.60;99.90;;;;;;5081378;28;20016;-36
2023/05/11 10:45:10;;;;;;;17.35;14.27;;;17.60;99.90;;;;;;5079689;28;20050;-36
2023/05/11 10:48:15;;;;;;;15.68;13.18;;;17.70;99.90;;;;;;5079972;28;20067;-36
2023/05/11 10:50:59;;;;;;;15.05;12.63;;;17.80;99.90;;;;;;5077122;28;20028;-36
2023/05/11 10:53:49;;;;;;;15.57;13.15;;;17.80;99.90;;;;;;5080527;28;20044;-37
2023/05/11 10:56:48;;;;;;;14.25;12.38;;;17.90;99.90;;;;;;5070637;28;20090;-36
2023/05/11 10:59:40;;;;;;;15.63;12.55;;;18.00;99.90;;;;;;5080488;28;20128;-37
2023/05/11 11:02:07;;;;;;;14.32;12.30;;;18.00;99.90;;;;;;5076742;28;20238;-37
2023/05/11 11:04:45;;;;;;;13.40;11.48;;;18.00;99.90;;;;;;5079822;28;20020;-36
2023/05/11 11:07:16;;;;;;;11.98;10.48;;;18.00;99.90;;;;;;5083849;28;20074;-36
2023/05/11 11:09:56;;;;;;;13.15;10.85;;;17.90;99.90;;;;;;5084157;28;20434;-36
2023/05/11 11:12:23;;;;;;;10.95;9.52;;;17.80;99.90;;;;;;5083838;28;20016;-37
2023/05/11 11:15:00;;;;;;;11.32;10.02;;;17.60;99.90;;;;;;5084894;28;20028;-36
2023/05/11 11:17:30;;;;;;;11.65;10.43;;;17.60;99.90;;;;;;5084456;28;20563;-36
2023/05/11 11:20:00;;;;;;;13.55;11.52;;;17.50;99.90;;;;;;5083752;28;20027;-37
2023/05/11 11:22:37;;;;;;;15.23;12.68;;;17.40;99.90;;;;;;5083495;28;20066;-36
2023/05/11 11:25:07;;;;;;;14.25;12.13;;;17.40;99.90;;;;;;5083345;28;20554;-35
2023/05/11 11:27:39;;;;;;;13.85;11.68;;;17.30;99.90;;;;;;5083949;28;20028;-37
2023/05/11 11:30:18;;;;;;;13.60;11.63;;;17.30;99.90;;;;;;5083631;28;20849;-34
2023/05/11 11:32:45;;;;;;;13.60;11.48;;;17.20;99.90;;;;;;5083037;28;20028;-36
2023/05/11 11:35:41;;;;;;;13.35;11.25;;;17.10;99.90;;;;;;5084022;28;20488;-37
2023/05/11 11:38:09;;;;;;;13.98;11.30;;;17.10;99.90;;;;;;5084575;28;20039;-36
2023/05/11 11:40:40;;;;;;;14.35;11.15;;;17.10;99.90;;;;;;5082656;28;20689;-36
2023/05/11 11:43:17;;;;;;;15.57;12.55;;;17.00;99.90;;;;;;5084345;28;20020;-36
2023/05/11 11:45:54;;;;;;;14.07;11.93;;;17.00;99.90;;;;;;5082982;28;20468;-37
2023/05/11 11:48:21;;;;;;;13.68;11.70;;;17.00;99.90;;;;;;5083792;28;20036;-36
2023/05/11 11:50:48;;;;;;;15.15;12.68;;;17.00;99.90;;;;;;5082681;28;20139;-35
2023/05/11 11:53:36;;;;;;;16.13;13.77;;;16.90;99.90;;;;;;5082585;28;20770;-35
2023/05/11 11:56:06;;;;;;;15.32;12.60;;;17.00;99.90;;;;;;5083540;28;20043;-36
2023/05/11 11:58:41;;;;;;;19.33;15.57;;;17.00;99.90;;;;;;5082712;28;20126;-35
2023/05/11 12:01:19;;;;;;;17.80;13.63;;;17.00;99.90;;;;;;5082843;28;20028;-34
2023/05/11 12:04:06;;;;;;;16.20;13.02;;;17.10;99.90;;;;;;5083485;28;20020;-34
2023/05/11 12:06:40;;;;;;;13.15;11.68;;;17.10;99.90;;;;;;5082614;28;20870;-36
2023/05/11 12:09:09;;;;;;;13.35;10.82;;;17.10;99.90;;;;;;5083029;28;20032;-34
2023/05/11 12:11:37;;;;;;;12.57;10.95;;;17.10;99.90;;;;;;5083059;28;20668;-36
2023/05/11 12:14:08;;;;;;;11.52;9.88;;;17.10;99.90;;;;;;5083240;28;20036;-35
2023/05/11 12:16:33;;;;;;;10.68;9.55;;;17.20;99.90;;;;;;5083033;28;20043;-36
2023/05/11 12:19:02;;;;;;;11.18;9.82;;;17.20;99.90;;;;;;5083659;28;20024;-34
2023/05/11 12:21:33;;;;;;;11.40;9.60;;;17.20;99.90;;;;;;5081773;28;20028;-35
2023/05/11 12:24:03;;;;;;;11.05;9.90;;;17.10;99.90;;;;;;5083726;28;20082;-35
2023/05/11 12:26:33;;;;;;;12.70;10.63;;;17.10;99.90;;;;;;5082707;28;20123;-35
2023/05/11 12:29:14;;;;;;;11.43;9.82;;;17.10;99.90;;;;;;5082450;28;20063;-35
2023/05/11 12:31:42;;;;;;;12.52;10.63;;;17.10;99.90;;;;;;5082198;28;20028;-35
2023/05/11 12:34:21;;;;;;;11.95;10.05;;;17.20;99.90;;;;;;5083007;28;20059;-34
2023/05/11 12:36:49;;;;;;;11.35;9.45;;;17.20;99.90;;;;;;5087796;28;20027;-35